createdAt,value
2017-08-22T00:00:26.163Z,1018.18
2017-08-22T00:01:27.006Z,1018.15
2017-08-22T00:02:27.652Z,1018.24
2017-08-22T00:03:28.279Z,1018.21
2017-08-22T00:04:28.919Z,1018.17
2017-08-22T00:05:29.559Z,1018.24
2017-08-22T00:06:30.204Z,1018.30
2017-08-22T00:07:30.831Z,1018.28
2017-08-22T00:08:31.520Z,1018.31
2017-08-22T00:09:32.154Z,1018.28
2017-08-22T00:10:32.994Z,1018.29
2017-08-22T01:47:34.982Z,1018.26
2017-08-22T01:51:08.572Z,1018.33
2017-08-22T01:52:09.443Z,1018.36
2017-08-22T01:53:10.743Z,1018.35
2017-08-22T01:56:42.284Z,1018.39
2017-08-22T01:57:42.918Z,1018.46
2017-08-22T01:58:43.755Z,1018.42
2017-08-22T02:00:49.064Z,1018.48
2017-08-22T02:01:49.701Z,1018.48
2017-08-22T02:02:50.338Z,1018.44
2017-08-22T02:03:50.969Z,1018.44
2017-08-22T02:04:51.619Z,1018.44
2017-08-22T02:05:52.308Z,1018.44
2017-08-22T02:06:53.138Z,1018.37
2017-08-22T02:07:53.782Z,1018.37
2017-08-22T02:08:54.419Z,1018.37
2017-08-22T02:09:55.062Z,1018.43
2017-08-22T02:10:55.692Z,1018.36
2017-08-22T02:11:56.327Z,1018.41
2017-08-22T02:12:56.969Z,1018.38
2017-08-22T02:13:57.601Z,1018.41
2017-08-22T02:14:58.438Z,1018.34
2017-08-22T02:15:59.129Z,1018.41
2017-08-22T02:16:59.771Z,1018.40
2017-08-22T02:18:00.404Z,1018.39
2017-08-22T02:19:01.044Z,1018.39
2017-08-22T02:20:01.678Z,1018.37
2017-08-22T02:21:02.313Z,1018.46
2017-08-22T02:22:02.949Z,1018.38
2017-08-22T02:23:03.785Z,1018.34
2017-08-22T02:24:04.425Z,1018.45
2017-08-22T02:25:05.059Z,1018.41
2017-08-22T02:26:05.699Z,1018.40
2017-08-22T02:27:06.335Z,1018.44
2017-08-22T02:28:06.978Z,1018.48
2017-08-22T02:29:07.614Z,1018.38
2017-08-22T02:30:08.258Z,1018.44
2017-08-22T02:31:09.096Z,1018.46
2017-08-22T02:32:09.727Z,1018.46
2017-08-22T02:33:10.369Z,1018.49
2017-08-22T02:34:11.004Z,1018.54
2017-08-22T02:35:11.639Z,1018.53
2017-08-22T02:36:12.276Z,1018.58
2017-08-22T02:37:12.918Z,1018.53
2017-08-22T02:38:13.559Z,1018.49
2017-08-22T02:39:14.189Z,1018.51
2017-08-22T02:40:15.084Z,1018.55
2017-08-22T02:41:15.716Z,1018.49
2017-08-22T02:42:16.354Z,1018.52
2017-08-22T02:43:16.991Z,1018.51
2017-08-22T02:44:17.627Z,1018.53
2017-08-22T02:45:18.264Z,1018.56
2017-08-22T02:46:18.904Z,1018.48
2017-08-22T02:47:19.537Z,1018.58
2017-08-22T02:48:20.476Z,1018.67
2017-08-22T02:49:21.114Z,1018.58
2017-08-22T02:50:21.747Z,1018.59
2017-08-22T02:51:22.388Z,1018.55
2017-08-22T02:52:23.025Z,1018.54
2017-08-22T02:53:23.670Z,1018.57
2017-08-22T02:54:24.302Z,1018.53
2017-08-22T02:55:24.940Z,1018.59
2017-08-22T02:56:25.724Z,1018.46
2017-08-22T02:57:26.363Z,1018.46
2017-08-22T02:58:27.047Z,1018.52
2017-08-22T02:59:27.688Z,1018.41
2017-08-22T03:00:28.322Z,1018.44
2017-08-22T03:01:28.958Z,1018.36
2017-08-22T03:02:29.596Z,1018.42
2017-08-22T03:03:30.231Z,1018.39
2017-08-22T05:58:34.248Z,1019.06
2017-08-22T05:59:35.134Z,1019.05
2017-08-22T06:00:35.774Z,1019.10
2017-08-22T06:01:36.410Z,1019.12
2017-08-22T08:33:48.882Z,1020.42
2017-08-22T08:34:49.667Z,1020.42
2017-08-22T08:35:50.508Z,1020.48
2017-08-22T08:36:51.442Z,1020.45
2017-08-22T08:37:52.081Z,1020.53
2017-08-22T08:38:52.710Z,1020.43
2017-08-22T08:39:53.347Z,1020.45
2017-08-22T08:40:53.986Z,1020.45
2017-08-22T08:41:54.623Z,1020.46
2017-08-22T08:42:55.261Z,1020.44
2017-08-22T08:43:55.896Z,1020.44
2017-08-22T08:44:56.525Z,1020.46
2017-08-22T08:45:57.319Z,1020.37
2017-08-22T08:46:57.953Z,1020.41
2017-08-22T08:47:58.591Z,1020.49
2017-08-22T08:48:59.233Z,1020.35
2017-08-22T08:49:59.866Z,1020.36
2017-08-22T08:51:00.508Z,1020.39
2017-08-22T08:52:01.138Z,1020.37
2017-08-22T08:53:01.773Z,1020.32
2017-08-22T08:54:02.613Z,1020.33
2017-08-22T08:55:03.246Z,1020.29
2017-08-22T08:56:03.880Z,1020.30
2017-08-22T08:57:04.717Z,1020.29
2017-08-22T08:58:05.359Z,1020.34
2017-08-22T08:59:05.995Z,1020.39
2017-08-22T09:00:06.631Z,1020.43
2017-08-22T09:01:07.466Z,1020.43
2017-08-22T09:02:08.101Z,1020.43
2017-08-22T09:03:08.738Z,1020.41
2017-08-22T09:52:40.605Z,1020.64
2017-08-22T09:53:41.245Z,1020.67
2017-08-22T09:55:50.826Z,1020.64
2017-08-22T09:56:51.467Z,1020.70
2017-08-22T09:57:52.111Z,1020.63
2017-08-22T09:58:52.948Z,1020.65
2017-08-22T09:59:53.589Z,1020.64
2017-08-22T10:00:54.228Z,1020.66
2017-08-22T11:01:31.598Z,1020.81
2017-08-22T11:02:32.188Z,1020.76
2017-08-22T11:03:32.834Z,1020.78
2017-08-22T11:04:33.475Z,1020.77
2017-08-22T11:05:34.319Z,1020.86
2017-08-22T11:06:34.956Z,1020.80
2017-08-22T11:07:35.599Z,1020.80
2017-08-22T11:08:36.245Z,1020.79
2017-08-22T11:09:36.888Z,1020.85
2017-08-22T11:10:37.532Z,1020.85
2017-08-22T11:11:38.177Z,1020.80
2017-08-22T11:12:38.814Z,1020.80
2017-08-22T11:13:39.606Z,1020.80
2017-08-22T11:14:40.256Z,1020.77
2017-08-22T11:15:40.897Z,1020.79
2017-08-22T11:16:41.545Z,1020.76
2017-08-22T11:17:42.186Z,1020.68
2017-08-22T11:18:42.834Z,1020.58
2017-08-22T11:19:43.468Z,1020.57
2017-08-22T11:20:44.110Z,1020.54
2017-08-22T11:21:44.956Z,1020.58
2017-08-22T11:22:45.596Z,1020.53
2017-08-22T11:23:46.237Z,1020.55
2017-08-22T11:24:46.878Z,1020.49
2017-08-22T11:25:47.526Z,1020.59
2017-08-22T11:26:48.164Z,1020.59
2017-08-22T11:27:48.811Z,1020.59
2017-08-22T11:28:49.450Z,1020.58
2017-08-22T11:29:50.093Z,1020.57
2017-08-22T11:30:50.985Z,1020.52
2017-08-22T11:31:51.628Z,1020.59
2017-08-22T11:32:52.224Z,1020.54
2017-08-22T11:33:52.865Z,1020.59
2017-08-22T11:34:53.511Z,1020.47
2017-08-22T11:35:54.158Z,1020.48
2017-08-22T11:36:54.806Z,1020.52
2017-08-22T11:37:55.447Z,1020.56
2017-08-22T11:38:56.245Z,1020.51
2017-08-22T11:39:56.890Z,1020.49
2017-08-22T11:40:57.528Z,1020.44
2017-08-22T11:41:58.179Z,1020.47
2017-08-22T11:42:58.824Z,1020.54
2017-08-22T11:43:59.460Z,1020.51
2017-08-22T11:45:00.103Z,1020.51
2017-08-22T11:46:00.750Z,1020.54
2017-08-22T11:47:01.596Z,1020.56
2017-08-22T11:48:02.237Z,1020.64
2017-08-22T11:49:02.886Z,1020.48
2017-08-22T11:50:03.579Z,1020.56
2017-08-22T11:51:04.222Z,1020.56
2017-08-22T11:52:04.865Z,1020.57
2017-08-22T11:53:05.506Z,1020.53
2017-08-22T11:54:06.148Z,1020.57
2017-08-22T11:55:07.250Z,1020.45
2017-08-22T11:56:07.891Z,1020.52
2017-08-22T11:57:08.537Z,1020.44
2017-08-22T11:58:09.189Z,1020.52
2017-08-22T11:59:09.825Z,1020.57
2017-08-22T12:00:10.474Z,1020.48
2017-08-22T12:01:11.121Z,1020.55
2017-08-22T12:02:11.774Z,1020.50
2017-08-22T12:03:12.414Z,1020.57
2017-08-22T12:04:13.463Z,1020.49
2017-08-22T12:05:14.104Z,1020.47
2017-08-22T12:06:14.751Z,1020.44
2017-08-22T12:07:15.402Z,1020.39
2017-08-22T12:08:16.048Z,1020.40
2017-08-22T12:09:16.690Z,1020.42
2017-08-22T12:10:17.335Z,1020.35
2017-08-22T12:11:17.981Z,1020.28
2017-08-22T12:12:18.775Z,1020.34
2017-08-22T12:13:19.424Z,1020.35
2017-08-22T12:14:20.020Z,1020.34
2017-08-22T12:15:20.724Z,1020.27
2017-08-22T12:16:21.368Z,1020.27
2017-08-22T12:17:22.018Z,1020.30
2017-08-22T12:18:22.665Z,1020.26
2017-08-22T12:19:23.316Z,1020.30
2017-08-22T12:22:27.492Z,1020.28
2017-08-22T12:23:28.140Z,1020.45
2017-08-22T12:32:39.169Z,1020.30
2017-08-22T12:33:39.820Z,1020.36
2017-08-22T12:34:40.466Z,1020.42
2017-08-22T12:35:41.114Z,1020.41
2017-08-22T12:36:41.910Z,1020.38
2017-08-22T12:42:20.429Z,1020.27
2017-08-22T12:43:21.076Z,1020.15
2017-08-22T12:44:21.678Z,1020.16
2017-08-22T12:46:49.619Z,1020.24
2017-08-22T12:47:50.265Z,1020.14
2017-08-22T12:48:50.994Z,1020.10
2017-08-22T12:49:51.673Z,1020.21
2017-08-22T12:50:52.469Z,1020.16
2017-08-22T12:51:53.169Z,1020.24
2017-08-22T12:52:53.821Z,1020.19
2017-08-22T12:53:54.676Z,1020.22
2017-08-22T12:54:55.533Z,1020.19
2017-08-22T12:55:56.183Z,1020.18
2017-08-22T12:56:56.837Z,1020.26
2017-08-22T12:57:57.485Z,1020.27
2017-08-22T12:58:58.137Z,1020.32
2017-08-22T12:59:58.792Z,1020.26
2017-08-22T13:00:59.447Z,1020.34
2017-08-22T13:02:17.023Z,1020.27
2017-08-22T13:03:17.874Z,1020.35
2017-08-22T13:04:18.538Z,1020.32
2017-08-22T13:05:32.045Z,1020.32
2017-08-22T13:06:32.696Z,1020.31
2017-08-22T13:07:33.355Z,1020.25
2017-08-22T13:08:34.005Z,1020.34
2017-08-22T13:09:34.659Z,1020.35
2017-08-22T13:10:35.259Z,1020.37
2017-08-22T13:11:36.115Z,1020.41
2017-08-22T13:12:36.766Z,1020.43
2017-08-22T13:13:37.419Z,1020.34
2017-08-22T13:14:38.073Z,1020.34
2017-08-22T13:15:38.727Z,1020.30
2017-08-22T13:16:39.374Z,1020.33
2017-08-22T13:17:40.025Z,1020.24
2017-08-22T13:18:40.688Z,1020.33
2017-08-22T13:19:41.489Z,1020.23
2017-08-22T13:20:42.346Z,1020.27
2017-08-22T13:21:42.998Z,1020.16
2017-08-22T13:22:43.661Z,1020.10
2017-08-22T13:23:44.303Z,1020.12
2017-08-22T13:24:44.953Z,1020.17
2017-08-22T13:25:45.607Z,1020.03
2017-08-22T13:26:46.257Z,1020.02
2017-08-22T13:27:46.906Z,1020.08
2017-08-22T13:28:47.758Z,1020.05
2017-08-22T13:29:48.416Z,1019.97
2017-08-22T13:30:49.066Z,1019.98
2017-08-22T13:31:49.719Z,1020.04
2017-08-22T13:32:50.367Z,1020.03
2017-08-22T13:33:51.016Z,1020.03
2017-08-22T13:34:51.669Z,1020.05
2017-08-22T13:35:52.321Z,1020.11
2017-08-22T13:36:53.126Z,1020.09
2017-08-22T13:37:53.779Z,1020.07
2017-08-22T13:38:54.423Z,1020.03
2017-08-22T13:39:55.079Z,1020.00
2017-08-22T13:40:55.789Z,1020.09
2017-08-22T13:41:56.642Z,1019.97
2017-08-22T13:42:57.353Z,1019.98
2017-08-22T13:43:58.054Z,1019.94
2017-08-22T13:44:58.702Z,1019.83
2017-08-22T13:45:59.359Z,1019.95
2017-08-22T13:47:00.010Z,1020.01
2017-08-22T13:48:00.666Z,1019.91
2017-08-22T13:49:01.312Z,1019.93
2017-08-22T13:50:01.968Z,1019.93
2017-08-22T13:51:03.023Z,1019.94
2017-08-22T13:52:03.672Z,1019.84
2017-08-22T13:53:04.343Z,1019.86
2017-08-22T13:54:04.978Z,1019.84
2017-08-22T13:55:05.647Z,1019.88
2017-08-22T13:56:06.333Z,1019.88
2017-08-22T13:57:06.984Z,1019.73
2017-08-22T13:58:07.636Z,1019.84
2017-08-22T13:59:08.496Z,1019.78
2017-08-22T14:00:09.145Z,1019.86
2017-08-22T14:01:09.800Z,1019.88
2017-08-22T14:02:10.456Z,1019.85
2017-08-22T14:03:11.109Z,1019.86
2017-08-22T14:04:11.714Z,1019.80
2017-08-22T14:05:12.368Z,1019.75
2017-08-22T14:06:13.031Z,1019.71
2017-08-22T14:07:14.135Z,1019.72
2017-08-22T14:08:14.790Z,1019.77
2017-08-22T14:09:15.441Z,1019.78
2017-08-22T14:10:16.093Z,1019.78
2017-08-22T14:11:16.745Z,1019.82
2017-08-22T14:12:17.403Z,1019.74
2017-08-22T14:13:18.052Z,1019.76
2017-08-22T14:14:18.707Z,1019.82
2017-08-22T14:15:19.662Z,1019.81
2017-08-22T14:16:20.315Z,1019.89
2017-08-22T14:17:20.974Z,1019.78
2017-08-22T14:18:21.631Z,1019.76
2017-08-22T14:19:22.288Z,1019.71
2017-08-22T14:20:22.946Z,1019.72
2017-08-22T14:21:23.599Z,1019.62
2017-08-22T14:22:24.250Z,1019.60
2017-08-22T14:23:25.113Z,1019.60
2017-08-22T14:24:25.758Z,1019.61
2017-08-22T14:25:26.413Z,1019.53
2017-08-22T14:26:27.068Z,1019.50
2017-08-22T14:27:27.777Z,1019.53
2017-08-22T14:28:28.424Z,1019.49
2017-08-22T14:29:29.083Z,1019.52
2017-08-22T14:30:29.736Z,1019.47
2017-08-22T14:31:30.386Z,1019.53
2017-08-22T14:32:31.188Z,1019.46
2017-08-22T14:33:31.840Z,1019.52
2017-08-22T14:34:32.494Z,1019.51
2017-08-22T14:35:33.145Z,1019.49
2017-08-22T14:36:33.803Z,1019.50
2017-08-22T14:37:34.452Z,1019.49
2017-08-22T14:38:35.111Z,1019.45
2017-08-22T14:39:35.766Z,1019.41
2017-08-22T14:40:36.719Z,1019.45
2017-08-22T14:41:37.377Z,1019.40
2017-08-22T14:42:38.033Z,1019.45
2017-08-22T14:43:38.689Z,1019.43
2017-08-22T14:44:39.298Z,1019.46
2017-08-22T14:45:39.951Z,1019.45
2017-08-22T14:46:40.555Z,1019.45
2017-08-22T14:47:41.207Z,1019.45
2017-08-22T14:48:42.014Z,1019.54
2017-08-22T14:49:42.663Z,1019.54
2017-08-22T14:50:43.319Z,1019.54
2017-08-22T14:51:43.973Z,1019.55
2017-08-22T14:52:44.621Z,1019.47
2017-08-22T14:53:45.271Z,1019.42
2017-08-22T14:54:45.922Z,1019.49
2017-08-22T14:55:46.575Z,1019.56
2017-08-22T14:56:47.429Z,1019.65
2017-08-22T14:57:48.075Z,1019.64
2017-08-22T14:58:48.732Z,1019.63
2017-08-22T14:59:49.379Z,1019.62
2017-08-22T15:00:50.028Z,1019.61
2017-08-22T15:01:50.679Z,1019.61
2017-08-22T15:02:51.335Z,1019.59
2017-08-22T15:03:51.983Z,1019.58
2017-08-22T15:04:52.639Z,1019.53
2017-08-22T15:05:53.545Z,1019.55
2017-08-22T15:06:54.189Z,1019.56
2017-08-22T15:07:54.835Z,1019.63
2017-08-22T15:08:55.530Z,1019.61
2017-08-22T15:09:56.188Z,1019.55
2017-08-22T15:10:56.835Z,1019.60
2017-08-22T15:11:57.486Z,1019.61
2017-08-22T15:12:58.136Z,1019.65
2017-08-22T15:13:58.988Z,1019.70
2017-08-22T15:14:59.633Z,1019.63
2017-08-22T15:16:00.430Z,1019.68
2017-08-22T15:17:01.027Z,1019.61
2017-08-22T15:18:01.673Z,1019.65
2017-08-22T15:19:02.319Z,1019.63
2017-08-22T15:20:02.973Z,1019.62
2017-08-22T15:21:03.618Z,1019.63
2017-08-22T15:22:04.270Z,1019.62
2017-08-22T15:23:04.910Z,1019.60
2017-08-22T15:24:05.717Z,1019.66
2017-08-22T15:25:06.365Z,1019.70
2017-08-22T15:26:07.015Z,1019.62
2017-08-22T15:27:07.658Z,1019.61
2017-08-22T15:28:08.303Z,1019.71
2017-08-22T15:29:08.952Z,1019.76
2017-08-22T15:30:09.607Z,1019.72
2017-08-22T15:31:10.250Z,1019.70
2017-08-22T15:32:11.092Z,1019.67
2017-08-22T15:33:11.748Z,1019.68
2017-08-22T15:34:12.392Z,1019.64
2017-08-22T15:35:13.033Z,1019.83
2017-08-22T15:36:13.726Z,1019.79
2017-08-22T15:37:14.371Z,1019.80
2017-08-22T15:38:15.017Z,1019.73
2017-08-22T15:39:15.661Z,1019.70
2017-08-22T15:40:16.455Z,1019.75
2017-08-22T15:41:17.101Z,1019.70
2017-08-22T15:42:17.745Z,1019.87
2017-08-22T15:43:18.388Z,1019.79
2017-08-22T15:44:19.032Z,1019.94
2017-08-22T15:45:19.684Z,1019.84
2017-08-22T15:46:20.320Z,1019.93
2017-08-22T15:47:20.969Z,1019.96
2017-08-22T15:48:21.620Z,1019.97
2017-08-22T15:49:22.463Z,1019.97
2017-08-22T15:50:23.107Z,1019.91
2017-08-22T15:51:23.754Z,1019.83
2017-08-22T15:52:24.399Z,1019.88
2017-08-22T15:53:25.058Z,1019.92
2017-08-22T15:54:25.746Z,1020.02
2017-08-22T15:55:26.396Z,1019.96
2017-08-22T15:56:27.037Z,1019.98
2017-08-22T15:57:27.829Z,1019.97
2017-08-22T15:58:28.479Z,1019.92
2017-08-22T15:59:29.120Z,1019.87
2017-08-22T16:00:29.763Z,1019.87
2017-08-22T16:01:30.408Z,1019.81
2017-08-22T16:02:31.048Z,1019.86
2017-08-22T16:03:31.696Z,1019.83
2017-08-22T16:04:32.337Z,1019.85
2017-08-22T16:05:33.179Z,1019.86
2017-08-22T16:06:33.822Z,1019.87
2017-08-22T16:07:34.472Z,1019.92
2017-08-22T16:08:35.109Z,1019.97
2017-08-22T16:09:35.806Z,1020.03
2017-08-22T16:10:36.449Z,1019.88
2017-08-22T16:11:37.321Z,1019.89
2017-08-22T16:12:38.941Z,1019.87
2017-08-22T16:13:39.780Z,1019.90
2017-08-22T16:14:40.434Z,1019.84
2017-08-22T16:15:41.078Z,1019.91
2017-08-22T16:16:41.727Z,1019.91
2017-08-22T16:17:42.367Z,1019.85
2017-08-22T16:18:43.015Z,1019.80
2017-08-22T16:19:43.806Z,1019.79
2017-08-22T16:20:44.450Z,1019.84
2017-08-22T16:21:45.102Z,1019.75
2017-08-22T16:22:45.743Z,1019.78
2017-08-22T16:23:46.384Z,1019.76
2017-08-22T16:24:47.027Z,1019.81
2017-08-22T16:25:47.675Z,1019.81
2017-08-22T16:26:48.322Z,1019.81
2017-08-22T16:27:49.117Z,1019.76
2017-08-22T16:28:49.763Z,1019.77
2017-08-22T16:29:50.410Z,1019.75
2017-08-22T16:30:51.056Z,1019.69
2017-08-22T16:31:51.696Z,1019.70
2017-08-22T16:32:52.345Z,1019.69
2017-08-22T16:33:53.041Z,1019.79
2017-08-22T16:34:53.689Z,1019.68
2017-08-22T16:35:54.539Z,1019.64
2017-08-22T16:36:55.237Z,1019.62
2017-08-22T16:37:55.889Z,1019.57
2017-08-22T16:38:56.533Z,1019.67
2017-08-22T16:39:57.183Z,1019.60
2017-08-22T16:40:58.024Z,1019.55
2017-08-22T16:41:58.667Z,1019.55
2017-08-22T16:42:59.316Z,1019.50
2017-08-22T16:43:59.963Z,1019.48
2017-08-22T16:45:00.605Z,1019.52
2017-08-22T16:46:01.253Z,1019.43
2017-08-22T16:47:01.899Z,1019.39
2017-08-22T16:48:02.539Z,1019.45
2017-08-22T16:49:03.388Z,1019.52
2017-08-22T16:50:04.027Z,1019.42
2017-08-22T16:51:04.670Z,1019.41
2017-08-22T16:52:05.312Z,1019.38
2017-08-22T16:53:05.960Z,1019.46
2017-08-22T16:54:06.610Z,1019.34
2017-08-22T16:55:07.248Z,1019.31
2017-08-22T16:56:07.948Z,1019.33
2017-08-22T16:57:08.900Z,1019.36
2017-08-22T16:58:09.544Z,1019.31
2017-08-22T16:59:10.191Z,1019.36
2017-08-22T17:00:10.835Z,1019.37
2017-08-22T17:01:11.474Z,1019.37
2017-08-22T17:02:12.117Z,1019.46
2017-08-22T17:03:12.764Z,1019.49
2017-08-22T17:04:13.404Z,1019.42
2017-08-22T17:05:14.058Z,1019.42
2017-08-22T17:06:14.890Z,1019.44
2017-08-22T17:07:15.537Z,1019.38
2017-08-22T17:08:16.176Z,1019.39
2017-08-22T17:09:16.825Z,1019.29
2017-08-22T17:10:17.472Z,1019.35
2017-08-22T17:11:18.111Z,1019.26
2017-08-22T17:12:18.757Z,1019.29
2017-08-22T17:13:19.397Z,1019.27
2017-08-22T17:14:20.244Z,1019.24
2017-08-22T17:15:20.881Z,1019.24
2017-08-22T17:16:21.530Z,1019.24
2017-08-22T17:17:22.168Z,1019.17
2017-08-22T17:18:22.815Z,1019.17
2017-08-22T17:19:23.460Z,1019.18
2017-08-22T17:20:24.115Z,1019.12
2017-08-22T17:21:24.760Z,1019.13
2017-08-22T17:22:25.557Z,1019.18
2017-08-22T17:23:26.197Z,1019.13
2017-08-22T17:24:26.843Z,1019.12
2017-08-22T17:25:27.484Z,1019.08
2017-08-22T17:26:28.132Z,1019.12
2017-08-22T17:27:28.780Z,1019.12
2017-08-22T17:28:29.416Z,1019.16
2017-08-22T17:29:30.065Z,1019.16
2017-08-22T17:30:31.163Z,1019.11
2017-08-22T17:31:31.801Z,1019.11
2017-08-22T17:32:32.443Z,1019.10
2017-08-22T17:33:33.139Z,1019.02
2017-08-22T17:34:33.785Z,1019.01
2017-08-22T17:35:34.425Z,1019.05
2017-08-22T17:36:35.066Z,1018.96
2017-08-22T17:37:35.709Z,1018.96
2017-08-22T17:38:36.360Z,1019.11
2017-08-22T17:39:37.301Z,1019.08
2017-08-22T17:40:37.939Z,1019.08
2017-08-22T17:43:49.317Z,1019.10
2017-08-22T17:44:50.010Z,1019.05
2017-08-22T17:46:52.402Z,1018.98
2017-08-22T17:47:53.352Z,1019.07
2017-08-22T17:48:53.983Z,1018.99
2017-08-22T17:49:54.627Z,1019.04
2017-08-22T17:50:55.272Z,1019.07
2017-08-22T17:51:55.916Z,1019.11
2017-08-22T17:52:56.562Z,1019.15
2017-08-22T17:53:57.206Z,1019.15
2017-08-22T17:54:57.842Z,1019.19
2017-08-22T17:55:58.635Z,1019.14
2017-08-22T17:56:59.282Z,1019.14
2017-08-22T17:57:59.926Z,1019.14
2017-08-22T17:59:00.629Z,1019.16
2017-08-22T18:00:01.270Z,1019.19
2017-08-22T18:01:01.920Z,1019.15
2017-08-22T18:02:02.559Z,1019.16
2017-08-22T18:03:03.202Z,1019.21
2017-08-22T18:04:04.097Z,1019.25
2017-08-22T18:05:04.737Z,1019.25
2017-08-22T18:06:05.378Z,1019.30
2017-08-22T18:07:06.020Z,1019.22
2017-08-22T18:08:06.667Z,1019.18
2017-08-22T18:09:07.307Z,1019.20
2017-08-22T18:10:07.957Z,1019.24
2017-08-22T18:11:08.597Z,1019.21
2017-08-22T18:12:09.387Z,1019.16
2017-08-22T18:13:10.031Z,1019.18
2017-08-22T18:14:10.680Z,1019.18
2017-08-22T18:15:11.375Z,1019.24
2017-08-22T18:16:12.017Z,1019.18
2017-08-22T18:17:12.659Z,1019.22
2017-08-22T18:18:13.305Z,1019.16
2017-08-22T18:19:13.954Z,1019.09
2017-08-22T18:20:14.596Z,1019.04
2017-08-22T18:21:15.444Z,1019.13
2017-08-22T18:22:16.097Z,1019.07
2017-08-22T18:23:16.727Z,1019.04
2017-08-22T18:24:17.374Z,1019.06
2017-08-22T18:25:18.014Z,1019.04
2017-08-22T18:26:18.653Z,1019.04
2017-08-22T18:27:19.299Z,1019.06
2017-08-22T18:28:19.945Z,1019.00
2017-08-22T18:29:20.791Z,1019.02
2017-08-22T18:30:21.429Z,1018.99
2017-08-22T18:31:22.076Z,1019.00
2017-08-22T18:32:22.714Z,1018.98
2017-08-22T18:33:23.357Z,1018.95
2017-08-22T18:34:23.998Z,1018.94
2017-08-22T18:35:24.691Z,1018.89
2017-08-22T18:36:25.328Z,1018.87
2017-08-22T18:37:26.124Z,1018.94
2017-08-22T18:38:26.763Z,1018.90
2017-08-22T18:39:27.406Z,1018.95
2017-08-22T18:40:28.049Z,1018.94
2017-08-22T18:41:28.686Z,1018.93
2017-08-22T18:42:29.333Z,1018.89
2017-08-22T18:43:29.974Z,1018.90
2017-08-22T18:44:30.621Z,1018.95
2017-08-22T18:45:31.607Z,1018.85
2017-08-22T18:46:32.250Z,1018.92
2017-08-22T18:47:32.890Z,1018.85
2017-08-22T18:48:33.529Z,1018.91
2017-08-22T18:49:34.121Z,1018.94
2017-08-22T18:50:34.916Z,1018.99
2017-08-22T18:51:35.612Z,1019.01
2017-08-22T18:52:36.453Z,1019.02
2017-08-22T18:53:37.155Z,1019.03
2017-08-22T18:54:37.893Z,1019.00
2017-08-22T18:55:38.631Z,1018.96
2017-08-22T18:56:39.323Z,1018.90
2017-08-22T18:58:55.552Z,1018.93
2017-08-22T18:59:56.247Z,1018.97
2017-08-22T19:00:56.995Z,1018.88
2017-08-22T19:01:57.632Z,1018.86
2017-08-22T19:02:58.436Z,1018.90
2017-08-22T19:03:59.121Z,1018.83
2017-08-22T19:04:59.818Z,1018.89
2017-08-22T19:06:00.712Z,1018.93
2017-08-22T19:07:01.353Z,1018.91
2017-08-22T19:08:01.989Z,1018.94
2017-08-22T19:09:02.639Z,1018.86
2017-08-22T19:10:03.277Z,1018.83
2017-08-22T19:11:03.913Z,1018.76
2017-08-22T19:12:04.550Z,1018.73
2017-08-22T19:13:05.189Z,1018.72
2017-08-22T19:14:06.200Z,1018.74
2017-08-22T19:15:06.838Z,1018.68
2017-08-22T19:16:07.483Z,1018.67
2017-08-22T19:17:08.171Z,1018.64
2017-08-22T19:18:08.815Z,1018.73
2017-08-22T19:19:09.481Z,1018.72
2017-08-22T19:20:10.150Z,1018.67
2017-08-22T19:21:10.791Z,1018.77
2017-08-22T19:22:11.632Z,1018.66
2017-08-22T19:23:12.274Z,1018.75
2017-08-22T19:24:12.920Z,1018.72
2017-08-22T19:25:13.561Z,1018.66
2017-08-22T19:26:14.251Z,1018.64
2017-08-22T19:27:14.889Z,1018.70
2017-08-22T19:28:15.482Z,1018.69
2017-08-22T19:29:16.117Z,1018.66
2017-08-22T19:30:16.760Z,1018.74
2017-08-22T19:31:17.656Z,1018.72
2017-08-22T19:32:18.291Z,1018.72
2017-08-22T19:33:18.952Z,1018.66
2017-08-22T19:34:19.569Z,1018.67
2017-08-22T19:35:20.203Z,1018.62
2017-08-22T19:36:20.846Z,1018.62
2017-08-22T19:37:21.496Z,1018.70
2017-08-22T19:38:22.176Z,1018.63
2017-08-22T19:39:23.071Z,1018.63
2017-08-22T19:40:23.706Z,1018.68
2017-08-22T19:41:24.373Z,1018.71
2017-08-22T19:42:25.039Z,1018.62
2017-08-22T19:43:25.672Z,1018.61
2017-08-22T19:44:26.309Z,1018.66
2017-08-22T19:45:26.950Z,1018.63
2017-08-22T19:46:27.589Z,1018.60
2017-08-22T19:47:28.472Z,1018.63
2017-08-22T19:48:29.360Z,1018.65
2017-08-22T19:49:34.036Z,1018.76
2017-08-22T19:50:34.794Z,1018.76
2017-08-22T19:51:39.783Z,1018.78
2017-08-22T19:52:40.254Z,1018.94
2017-08-22T19:53:45.029Z,1018.85
2017-08-22T19:54:45.020Z,1018.80
2017-08-22T19:55:45.655Z,1018.92
2017-08-22T19:56:46.544Z,1018.88
2017-08-22T19:57:47.183Z,1018.91
2017-08-22T19:58:47.868Z,1018.94
2017-08-22T19:59:48.511Z,1018.94
2017-08-22T20:00:49.175Z,1018.94
2017-08-22T20:01:50.780Z,1018.98
2017-08-22T20:02:51.412Z,1018.94
2017-08-22T20:03:52.058Z,1018.89
2017-08-22T20:04:52.693Z,1018.91
2017-08-22T20:05:53.482Z,1018.81
2017-08-22T20:06:54.112Z,1018.79
2017-08-22T20:07:54.749Z,1018.81
2017-08-22T20:08:57.809Z,1018.85
2017-08-22T20:09:58.412Z,1018.79
2017-08-22T20:10:59.039Z,1018.88
2017-08-22T20:12:02.040Z,1018.86
2017-08-22T20:13:02.734Z,1018.95
2017-08-22T20:15:19.586Z,1018.91
2017-08-22T20:16:24.138Z,1018.80
2017-08-22T20:17:25.143Z,1018.79
2017-08-22T20:18:27.525Z,1018.80
2017-08-22T20:19:27.629Z,1018.73
2017-08-22T20:29:19.240Z,1018.78
2017-08-22T20:30:20.079Z,1018.86
2017-08-22T20:31:21.176Z,1018.87
2017-08-22T20:32:26.525Z,1018.78
2017-08-22T20:33:37.190Z,1018.93
2017-08-22T20:34:40.978Z,1018.97
2017-08-22T20:36:54.762Z,1019.00
2017-08-22T20:56:15.517Z,1019.02
2017-08-22T20:57:16.230Z,1018.97
2017-08-22T20:58:16.946Z,1018.93
2017-08-22T20:59:17.593Z,1018.91
2017-08-22T21:00:18.227Z,1018.98
2017-08-22T21:01:18.918Z,1018.94
2017-08-22T21:02:19.559Z,1019.02
2017-08-22T21:03:20.246Z,1018.99
2017-08-22T21:04:20.881Z,1018.95
2017-08-22T21:05:21.517Z,1018.93
2017-08-22T21:06:22.353Z,1018.95
2017-08-22T21:07:22.996Z,1018.93
2017-08-22T21:08:23.634Z,1018.92
2017-08-22T21:09:24.269Z,1018.92
2017-08-22T21:10:24.907Z,1018.97
2017-08-22T21:11:25.550Z,1018.94
2017-08-22T21:12:26.176Z,1018.92
2017-08-22T21:13:26.814Z,1018.83
2017-08-22T21:14:27.655Z,1018.81
2017-08-22T21:15:28.288Z,1018.75
2017-08-22T21:16:28.924Z,1018.71
2017-08-22T21:17:29.561Z,1018.68
2017-08-22T21:18:30.200Z,1018.71
2017-08-22T21:19:30.840Z,1018.75
2017-08-22T21:20:31.478Z,1018.75
2017-08-22T21:21:32.116Z,1018.72
2017-08-22T21:22:32.755Z,1018.68
2017-08-22T21:23:33.544Z,1018.74
2017-08-22T21:24:34.179Z,1018.60
2017-08-22T21:25:34.818Z,1018.67
2017-08-22T21:26:35.460Z,1018.76
2017-08-22T21:27:36.097Z,1018.68
2017-08-22T21:28:36.783Z,1018.72
2017-08-22T21:29:37.476Z,1018.79
2017-08-22T21:30:38.109Z,1018.76
2017-08-22T21:31:38.952Z,1018.81
2017-08-22T21:32:39.591Z,1018.77
2017-08-22T21:33:40.231Z,1018.63
2017-08-22T21:34:40.863Z,1018.72
2017-08-22T21:35:41.506Z,1018.67
2017-08-22T21:36:42.146Z,1018.68
2017-08-22T21:37:42.781Z,1018.73
2017-08-22T21:38:43.415Z,1018.72
2017-08-22T21:39:44.201Z,1018.71
2017-08-22T21:40:44.841Z,1018.68
2017-08-22T21:41:45.482Z,1018.74
2017-08-22T21:42:46.113Z,1018.67
2017-08-22T21:43:46.751Z,1018.75
2017-08-22T21:44:47.391Z,1018.68
2017-08-22T21:45:48.032Z,1018.68
2017-08-22T21:46:48.674Z,1018.66
2017-08-22T21:47:49.507Z,1018.66
2017-08-22T21:48:50.138Z,1018.71
2017-08-22T21:49:50.785Z,1018.70
2017-08-22T21:50:51.416Z,1018.80
2017-08-22T21:51:52.057Z,1018.78
2017-08-22T21:52:52.692Z,1018.84
2017-08-22T21:53:53.332Z,1018.79
2017-08-22T21:54:53.971Z,1018.79
2017-08-22T21:55:54.807Z,1018.81
2017-08-22T21:56:55.492Z,1018.80
2017-08-22T21:57:56.126Z,1018.79
2017-08-22T21:58:56.763Z,1018.70
2017-08-22T21:59:57.407Z,1018.64
2017-08-22T22:00:58.046Z,1018.65
2017-08-22T22:01:58.678Z,1018.67